Brilliance Of The Seas — C6SJ5 — position and weather

sailwx.info

Track history (hours):
 
Tides and Currents Weather Stations Pressure Air Temp Water Temp Dewpoint Dewpoint Depression Visibility Wind Speed Wind Dir Waves Ship Positions

Brilliance Of The Seas

Operator: Royal Caribbean Cruises Ltd

Last reported at 2018-May-26 02:19 UTC. Time now 2018-May-26 13:20 UTC.
Position N 49°25' W 003°04'.

Type: Ship. MMSI: 311361000.

Date/timePositionNaut miles runAvg speedWind from/ knotsBaromVisibWave heightAir tempDewpointWater temp
2018-May-26 02:19N 49°25' W 003°04'3 8.8
2018-May-26 01:57N 49°25' W 003°10'6 6.0
2018-May-26 01:00N 49°24' W 003°18'3404.6 030 / 171019.0 5.4 13.0 13.0
2018-May-26 00:59N 49°26' W 003°22'173 7.2
2018-May-25 01:00N 50°42' W 007°24'2512.6 350 / 91022.010.8 14.0 14.0
2018-May-24 23:00N 51°06' W 007°36'28 6.7 360 / 101023.0 14.0 6.310.0
2018-May-24 18:53N 51°31' W 007°56'4 8.5
2018-May-24 18:28N 51°34' W 007°58'4 8.3
2018-May-24 18:00N 51°37' W 008°02'4 8.5
2018-May-24 17:31N 51°40' W 008°07'4 8.7
2018-May-24 17:00N 51°43' W 008°12'4 9.0
2018-May-24 16:30N 51°47' W 008°15'4 8.6
2018-May-24 16:00N 51°51' W 008°18'0 0.4
2018-May-24 15:30N 51°51' W 008°18'0 0.0
2018-May-24 15:00N 51°51' W 008°18'0 0.0
2018-May-24 14:30N 51°51' W 008°18'0 0.0
2018-May-24 14:00N 51°51' W 008°18'0 0.0
2018-May-24 13:30N 51°51' W 008°18'0 0.0
2018-May-24 09:00N 51°51' W 008°18'0 0.0
2018-May-24 08:30N 51°51' W 008°18'0 0.0
2018-May-24 08:00N 51°51' W 008°18'0 0.0
2018-May-24 07:30N 51°51' W 008°18'0 0.0
2018-May-24 07:00N 51°51' W 008°18'0 0.0
2018-May-24 06:30N 51°51' W 008°18'0 0.0
2018-May-24 06:00N 51°51' W 008°18'0 0.1
2018-May-24 05:30N 51°51' W 008°18'1 2.8
2018-May-24 05:01N 51°51' W 008°16'611.9
2018-May-24 04:31N 51°45' W 008°15'611.6
2018-May-24 04:00N 51°42' W 008°06'714.1
2018-May-24 03:30N 51°44' W 007°55'714.3
2018-May-24 03:00N 51°46' W 007°44'714.4
2018-May-24 02:30N 51°48' W 007°33'814.8
2018-May-24 02:00N 51°50' W 007°22'714.7
2018-May-24 01:30N 51°52' W 007°11'714.7
2018-May-24 01:00N 51°55' W 006°59'3321.9
2018-May-24 01:00N 51°54' W 006°54'510.1 040 / 151024.010.8 13.0 10.0
2018-May-24 00:30N 51°57' W 006°48'815.3
2018-May-24 00:00N 51°59' W 006°36'815.8
2018-May-23 23:29N 52°03' W 006°24'816.6
2018-May-23 23:00N 52°07' W 006°13'3217.3
2018-May-23 21:08N 52°33' W 005°41'531.5
2018-May-23 21:00N 52°30' W 005°36'696.9 030 / 181026.0 11.0 7.210.0
2018-May-23 20:56N 52°36' W 005°38'42 2.2
2018-May-23 01:45N 53°18' W 005°41'1 4.9
2018-May-23 01:30N 53°17' W 005°41'611.8
2018-May-23 01:00N 53°12' W 005°36'6 3.1 340 / 91025.010.8 12.0 10.0
2018-May-22 22:54N 53°17' W 005°42'0 0.9
2018-May-22 22:26N 53°18' W 005°42'11 4.3
2018-May-22 19:58N 53°21' W 005°59'8 1.8
2018-May-22 15:30N 53°21' W 006°13'0 0.0
2018-May-22 03:42N 53°21' W 006°13'0 0.0
2018-May-21 16:39N 53°21' W 006°13'0 0.0
2018-May-21 05:39N 53°21' W 006°13'0 0.6
2018-May-21 05:26N 53°21' W 006°13'2 3.2
2018-May-21 04:56N 53°21' W 006°10'410.1
2018-May-21 04:30N 53°21' W 006°03'813.6
2018-May-21 03:57N 53°25' W 005°52'2914.7
2018-May-21 02:00N 53°48' W 005°24'1814.2 160 / 231019.010.8 11.0 10.0
2018-May-21 00:44N 54°05' W 005°16'615.4
2018-May-21 00:21N 54°11' W 005°14'616.0
2018-May-21 00:00N 54°17' W 005°13'816.4
2018-May-20 23:30N 54°25' W 005°13'816.6
2018-May-20 23:00N 54°33' W 005°15'15979.3
2018-May-20 23:00N 54°48' W 005°18'714.5 180 / 261019.0 10.0 6.010.0
2018-May-20 22:30N 54°41' W 005°16'816.5
2018-May-20 22:00N 54°49' W 005°19'816.0
2018-May-20 21:30N 54°57' W 005°22'815.7
2018-May-20 21:00N 55°05' W 005°19'3715.6
2018-May-20 18:37N 55°40' W 004°60'215.4
2018-May-20 18:30N 55°42' W 004°60'612.1
2018-May-20 18:00N 55°48' W 004°58'816.0
2018-May-20 17:30N 55°56' W 004°55'511.0
2018-May-20 17:01N 55°58' W 004°46'0 0.0
2018-May-20 08:55N 55°57' W 004°46'0 0.0
2018-May-20 08:28N 55°57' W 004°46'0 0.0
2018-May-20 07:52N 55°57' W 004°46'0 0.0
2018-May-20 07:28N 55°57' W 004°46'0 0.0
2018-May-20 05:52N 55°57' W 004°46'0 0.6
2018-May-20 05:30N 55°58' W 004°46'4 7.1
2018-May-20 04:57N 55°57' W 004°52'715.1
2018-May-20 04:30N 55°51' W 004°56'816.4
2018-May-20 04:00N 55°43' W 004°59'2612.8
2018-May-20 02:00N 55°18' W 005°12'1612.7 180 / 201018.010.8 10.0
2018-May-20 00:43N 55°13' W 005°39'314.7
2018-May-20 00:30N 55°13' W 005°45'714.1
2018-May-19 23:59N 55°13' W 005°57'816.5
2018-May-19 23:30N 55°20' W 006°05'815.4
2018-May-19 23:00N 55°23' W 006°18'714.5
2018-May-19 22:30N 55°27' W 006°28'714.1
2018-May-19 22:00N 55°32' W 006°36'713.7
2018-May-19 21:30N 55°38' W 006°44'613.0
2018-May-19 21:00N 55°42' W 006°53'21311.3
2018-May-19 02:04N 58°44' W 003°26'114.4
2018-May-19 02:00N 58°44' W 003°25'713.6
2018-May-19 01:30N 58°44' W 003°11'510.8
2018-May-19 01:00N 58°42' W 003°02'7598.9
2018-May-19 01:00N 58°36' W 002°54'2 5.1 180 / 41023.010.8 10.0 9.0
2018-May-19 00:30N 58°38' W 002°55'510.2
2018-May-19 00:00N 58°35' W 002°48'612.3
2018-May-18 23:30N 58°31' W 002°40'4216.6
2018-May-18 21:00N 57°54' W 003°18'32 1.8 050 / 51024.0 13.0 7.310.0
2018-May-18 03:00N 57°48' W 002°18'2412.3 180 / 101027.010.8 9.0 9.0
2018-May-18 01:03N 57°37' W 001°38'115.1
2018-May-18 01:00N 57°36' W 001°38'1015.5
2018-May-18 00:20N 57°27' W 001°31'616.1
2018-May-17 23:57N 57°20' W 001°32'816.9
2018-May-17 23:30N 57°13' W 001°31'917.3
2018-May-17 23:00N 57°04' W 001°35'917.7
2018-May-17 22:29N 56°56' W 001°41'3417.9
2018-May-17 20:35N 56°24' W 002°04'117.7
2018-May-17 20:30N 56°23' W 002°06'917.7
2018-May-17 20:01N 56°16' W 002°15'817.0
2018-May-17 19:31N 56°10' W 002°26'917.7
2018-May-17 19:01N 56°07' W 002°41'917.7
2018-May-17 18:30N 56°05' W 002°56'1014.0
2018-May-17 17:48N 56°02' W 003°14'3 0.3
2018-May-17 05:34N 56°01' W 003°19'110.2
2018-May-17 05:31N 56°01' W 003°18'612.6
2018-May-17 05:00N 56°04' W 003°08'611.1
2018-May-17 04:30N 56°04' W 002°58'3 6.0
2018-May-17 04:00N 56°05' W 002°53'3 5.6
2018-May-17 03:30N 56°06' W 002°48'2 4.8
2018-May-17 03:00N 56°07' W 002°44'2 4.7
2018-May-17 02:30N 56°07' W 002°40'3 5.5
2018-May-17 02:00N 56°08' W 002°35'3211.7
2018-May-17 02:00N 56°06' W 002°30'2 4.8 350 / 41033.010.8 9.0 10.0
2018-May-17 01:30N 56°08' W 002°29'3 6.2
2018-May-17 01:00N 56°09' W 002°24'3 6.1
2018-May-17 00:30N 56°10' W 002°18'5 8.3
2018-May-16 23:56N 56°07' W 002°11'4 9.3
2018-May-16 23:30N 56°04' W 002°06'6 9.8
2018-May-16 22:56N 56°00' W 001°59'410.5
2018-May-16 22:30N 55°57' W 001°53'611.0
2018-May-16 22:00N 55°54' W 001°46'510.8
2018-May-16 21:30N 55°50' W 001°39'611.3
2018-May-16 21:00N 55°46' W 001°31'611.5
2018-May-16 20:30N 55°43' W 001°23'611.1
2018-May-16 20:00N 55°39' W 001°16'17810.8
2018-May-16 03:30N 53°35' E 002°23'612.1
2018-May-16 03:00N 53°29' E 002°26'612.5
2018-May-16 02:30N 53°23' E 002°27'  
Track history (hours):
 
Tides and Currents Weather Stations Pressure Air Temp Water Temp Dewpoint Dewpoint Depression Visibility Wind Speed Wind Dir Waves Ship Positions

Brilliance Of The Seas

Operator: Royal Caribbean Cruises Ltd

Last reported at 2018-May-26 02:19 UTC. Time now 2018-May-26 13:20 UTC.
Position N 49°25' W 003°04'.

Type: Ship. MMSI: 311361000.

Date/timePositionNaut miles runAvg speedWind from/ knotsBaromVisibWave heightAir tempDewpointWater temp
2018-May-26 02:19N 49°25' W 003°04'3 8.8
2018-May-26 01:57N 49°25' W 003°10'6 6.0
2018-May-26 01:00N 49°24' W 003°18'3404.6 030 / 171019.0 5.4 13.0 13.0
2018-May-26 00:59N 49°26' W 003°22'173 7.2
2018-May-25 01:00N 50°42' W 007°24'2512.6 350 / 91022.010.8 14.0 14.0
2018-May-24 23:00N 51°06' W 007°36'28 6.7 360 / 101023.0 14.0 6.310.0
2018-May-24 18:53N 51°31' W 007°56'4 8.5
2018-May-24 18:28N 51°34' W 007°58'4 8.3
2018-May-24 18:00N 51°37' W 008°02'4 8.5
2018-May-24 17:31N 51°40' W 008°07'4 8.7
2018-May-24 17:00N 51°43' W 008°12'4 9.0
2018-May-24 16:30N 51°47' W 008°15'4 8.6
2018-May-24 16:00N 51°51' W 008°18'0 0.4
2018-May-24 15:30N 51°51' W 008°18'0 0.0
2018-May-24 15:00N 51°51' W 008°18'0 0.0
2018-May-24 14:30N 51°51' W 008°18'0 0.0
2018-May-24 14:00N 51°51' W 008°18'0 0.0
2018-May-24 13:30N 51°51' W 008°18'0 0.0
2018-May-24 09:00N 51°51' W 008°18'0 0.0
2018-May-24 08:30N 51°51' W 008°18'0 0.0
2018-May-24 08:00N 51°51' W 008°18'0 0.0
2018-May-24 07:30N 51°51' W 008°18'0 0.0
2018-May-24 07:00N 51°51' W 008°18'0 0.0
2018-May-24 06:30N 51°51' W 008°18'0 0.0
2018-May-24 06:00N 51°51' W 008°18'0 0.1
2018-May-24 05:30N 51°51' W 008°18'1 2.8
2018-May-24 05:01N 51°51' W 008°16'611.9
2018-May-24 04:31N 51°45' W 008°15'611.6
2018-May-24 04:00N 51°42' W 008°06'714.1
2018-May-24 03:30N 51°44' W 007°55'714.3
2018-May-24 03:00N 51°46' W 007°44'714.4
2018-May-24 02:30N 51°48' W 007°33'814.8
2018-May-24 02:00N 51°50' W 007°22'714.7
2018-May-24 01:30N 51°52' W 007°11'714.7
2018-May-24 01:00N 51°55' W 006°59'3321.9
2018-May-24 01:00N 51°54' W 006°54'510.1 040 / 151024.010.8 13.0 10.0
2018-May-24 00:30N 51°57' W 006°48'815.3
2018-May-24 00:00N 51°59' W 006°36'815.8
2018-May-23 23:29N 52°03' W 006°24'816.6
2018-May-23 23:00N 52°07' W 006°13'3217.3
2018-May-23 21:08N 52°33' W 005°41'531.5
2018-May-23 21:00N 52°30' W 005°36'696.9 030 / 181026.0 11.0 7.210.0
2018-May-23 20:56N 52°36' W 005°38'42 2.2
2018-May-23 01:45N 53°18' W 005°41'1 4.9
2018-May-23 01:30N 53°17' W 005°41'611.8
2018-May-23 01:00N 53°12' W 005°36'6 3.1 340 / 91025.010.8 12.0 10.0
2018-May-22 22:54N 53°17' W 005°42'0 0.9
2018-May-22 22:26N 53°18' W 005°42'11 4.3
2018-May-22 19:58N 53°21' W 005°59'8 1.8
2018-May-22 15:30N 53°21' W 006°13'0 0.0
2018-May-22 03:42N 53°21' W 006°13'0 0.0
2018-May-21 16:39N 53°21' W 006°13'0 0.0
2018-May-21 05:39N 53°21' W 006°13'0 0.6
2018-May-21 05:26N 53°21' W 006°13'2 3.2
2018-May-21 04:56N 53°21' W 006°10'410.1
2018-May-21 04:30N 53°21' W 006°03'813.6
2018-May-21 03:57N 53°25' W 005°52'2914.7
2018-May-21 02:00N 53°48' W 005°24'1814.2 160 / 231019.010.8 11.0 10.0
2018-May-21 00:44N 54°05' W 005°16'615.4
2018-May-21 00:21N 54°11' W 005°14'616.0
2018-May-21 00:00N 54°17' W 005°13'816.4
2018-May-20 23:30N 54°25' W 005°13'816.6
2018-May-20 23:00N 54°33' W 005°15'15979.3
2018-May-20 23:00N 54°48' W 005°18'714.5 180 / 261019.0 10.0 6.010.0
2018-May-20 22:30N 54°41' W 005°16'816.5
2018-May-20 22:00N 54°49' W 005°19'816.0
2018-May-20 21:30N 54°57' W 005°22'815.7
2018-May-20 21:00N 55°05' W 005°19'3715.6
2018-May-20 18:37N 55°40' W 004°60'215.4
2018-May-20 18:30N 55°42' W 004°60'612.1
2018-May-20 18:00N 55°48' W 004°58'816.0
2018-May-20 17:30N 55°56' W 004°55'511.0
2018-May-20 17:01N 55°58' W 004°46'0 0.0
2018-May-20 08:55N 55°57' W 004°46'0 0.0
2018-May-20 08:28N 55°57' W 004°46'0 0.0
2018-May-20 07:52N 55°57' W 004°46'0 0.0
2018-May-20 07:28N 55°57' W 004°46'0 0.0
2018-May-20 05:52N 55°57' W 004°46'0 0.6
2018-May-20 05:30N 55°58' W 004°46'4 7.1
2018-May-20 04:57N 55°57' W 004°52'715.1
2018-May-20 04:30N 55°51' W 004°56'816.4
2018-May-20 04:00N 55°43' W 004°59'2612.8
2018-May-20 02:00N 55°18' W 005°12'1612.7 180 / 201018.010.8 10.0
2018-May-20 00:43N 55°13' W 005°39'314.7
2018-May-20 00:30N 55°13' W 005°45'714.1
2018-May-19 23:59N 55°13' W 005°57'816.5
2018-May-19 23:30N 55°20' W 006°05'815.4
2018-May-19 23:00N 55°23' W 006°18'714.5
2018-May-19 22:30N 55°27' W 006°28'714.1
2018-May-19 22:00N 55°32' W 006°36'713.7
2018-May-19 21:30N 55°38' W 006°44'613.0
2018-May-19 21:00N 55°42' W 006°53'21311.3
2018-May-19 02:04N 58°44' W 003°26'114.4
2018-May-19 02:00N 58°44' W 003°25'713.6
2018-May-19 01:30N 58°44' W 003°11'510.8
2018-May-19 01:00N 58°42' W 003°02'7598.9
2018-May-19 01:00N 58°36' W 002°54'2 5.1 180 / 41023.010.8 10.0 9.0
2018-May-19 00:30N 58°38' W 002°55'510.2
2018-May-19 00:00N 58°35' W 002°48'612.3
2018-May-18 23:30N 58°31' W 002°40'4216.6
2018-May-18 21:00N 57°54' W 003°18'32 1.8 050 / 51024.0 13.0 7.310.0
2018-May-18 03:00N 57°48' W 002°18'2412.3 180 / 101027.010.8 9.0 9.0
2018-May-18 01:03N 57°37' W 001°38'115.1
2018-May-18 01:00N 57°36' W 001°38'1015.5
2018-May-18 00:20N 57°27' W 001°31'616.1
2018-May-17 23:57N 57°20' W 001°32'816.9
2018-May-17 23:30N 57°13' W 001°31'917.3
2018-May-17 23:00N 57°04' W 001°35'917.7
2018-May-17 22:29N 56°56' W 001°41'3417.9
2018-May-17 20:35N 56°24' W 002°04'117.7
2018-May-17 20:30N 56°23' W 002°06'917.7
2018-May-17 20:01N 56°16' W 002°15'817.0
2018-May-17 19:31N 56°10' W 002°26'917.7
2018-May-17 19:01N 56°07' W 002°41'917.7
2018-May-17 18:30N 56°05' W 002°56'1014.0
2018-May-17 17:48N 56°02' W 003°14'3 0.3
2018-May-17 05:34N 56°01' W 003°19'110.2
2018-May-17 05:31N 56°01' W 003°18'612.6
2018-May-17 05:00N 56°04' W 003°08'611.1
2018-May-17 04:30N 56°04' W 002°58'3 6.0
2018-May-17 04:00N 56°05' W 002°53'3 5.6
2018-May-17 03:30N 56°06' W 002°48'2 4.8
2018-May-17 03:00N 56°07' W 002°44'2 4.7
2018-May-17 02:30N 56°07' W 002°40'3 5.5
2018-May-17 02:00N 56°08' W 002°35'3211.7
2018-May-17 02:00N 56°06' W 002°30'2 4.8 350 / 41033.010.8 9.0 10.0
2018-May-17 01:30N 56°08' W 002°29'3 6.2
2018-May-17 01:00N 56°09' W 002°24'3 6.1
2018-May-17 00:30N 56°10' W 002°18'5 8.3
2018-May-16 23:56N 56°07' W 002°11'4 9.3
2018-May-16 23:30N 56°04' W 002°06'6 9.8
2018-May-16 22:56N 56°00' W 001°59'410.5
2018-May-16 22:30N 55°57' W 001°53'611.0
2018-May-16 22:00N 55°54' W 001°46'510.8
2018-May-16 21:30N 55°50' W 001°39'611.3
2018-May-16 21:00N 55°46' W 001°31'611.5
2018-May-16 20:30N 55°43' W 001°23'611.1
2018-May-16 20:00N 55°39' W 001°16'17810.8
2018-May-16 03:30N 53°35' E 002°23'612.1
2018-May-16 03:00N 53°29' E 002°26'612.5
2018-May-16 02:30N 53°23' E 002°27'  

Dump ship's entire track history